Terminal Aerodrome Forecast
Issued by NWS

Home | Current Version | Previous Version | Text Only | Print | Product List | Glossary On
Versions: 1 2 3 4 5 6 7 8 9 10 11 12 13 14 15
000
FTUS43 KAPX 242300
TAFPLN
TAF
KPLN 242327Z 2500/2524 22004KT P6SM OVC016
     FM250800 25009KT 5SM -DZ BR OVC005
     FM251300 29011G21KT P6SM BKN012
     FM251600 29014G24KT P6SM SCT035=

USA.gov is the U.S. government's official web portal to all federal, state and local government web resources and services.